createdAt,value
2022-08-05T00:04:21.276Z,52.69
2022-08-05T00:09:27.365Z,56.32
2022-08-05T00:14:35.311Z,53.36
2022-08-05T00:19:45.702Z,56.92
2022-08-05T00:25:02.319Z,54.02
2022-08-05T00:30:12.518Z,60.66
2022-08-05T00:35:16.200Z,56.86
2022-08-05T00:40:29.025Z,57.85
2022-08-05T00:45:43.115Z,62.47
2022-08-05T00:50:49.375Z,58.25
2022-08-05T00:55:56.408Z,55.97
2022-08-05T01:01:00.277Z,56.43
2022-08-05T01:06:14.019Z,58.55
2022-08-05T01:11:24.314Z,57.49
2022-08-05T01:16:46.362Z,58.75
2022-08-05T01:22:18.898Z,57.55
2022-08-05T01:27:59.017Z,59.45
2022-08-05T01:33:08.275Z,59.14
2022-08-05T01:38:14.588Z,57.23
2022-08-05T01:43:31.410Z,57.83
2022-08-05T01:48:37.159Z,58.68
2022-08-05T01:53:57.391Z,59.90
2022-08-05T01:59:04.483Z,57.11
2022-08-05T02:04:10.563Z,54.77
2022-08-05T02:09:14.756Z,54.49
2022-08-05T02:14:22.577Z,53.53
2022-08-05T02:19:34.176Z,54.78
2022-08-05T02:24:40.659Z,53.80
2022-08-05T02:29:59.474Z,57.94
2022-08-05T02:35:13.674Z,58.00
2022-08-05T02:40:18.603Z,56.92
2022-08-05T02:45:23.903Z,57.04
2022-08-05T02:50:30.259Z,56.16
2022-08-05T02:55:59.500Z,57.20
2022-08-05T03:00:57.979Z,56.86
2022-08-05T03:06:55.813Z,57.27
2022-08-05T03:11:54.953Z,55.48
2022-08-05T03:16:51.842Z,55.51
2022-08-05T03:21:58.596Z,55.93
2022-08-05T03:27:02.017Z,55.45
2022-08-05T03:32:06.450Z,56.17
2022-08-05T03:37:13.639Z,56.10
2022-08-05T03:42:18.063Z,56.18
2022-08-05T03:47:21.672Z,56.10
2022-08-05T03:52:49.157Z,57.09
2022-08-05T03:57:57.693Z,58.37
2022-08-05T04:03:02.838Z,59.35
2022-08-05T04:08:14.360Z,57.98
2022-08-05T04:13:21.538Z,58.75
2022-08-05T04:18:25.710Z,57.72
2022-08-05T04:24:04.836Z,57.19
2022-08-05T04:28:57.612Z,57.32
2022-08-05T04:34:31.509Z,59.44
2022-08-05T04:39:28.107Z,60.45
2022-08-05T04:44:32.252Z,61.27
2022-08-05T04:49:38.977Z,62.74
2022-08-05T04:55:05.322Z,60.09
2022-08-05T05:00:18.745Z,62.05
2022-08-05T05:05:29.158Z,60.58
2022-08-05T05:10:41.889Z,59.04
2022-08-05T05:16:02.217Z,58.99
2022-08-05T05:21:09.560Z,59.26
2022-08-05T05:26:14.811Z,59.85
2022-08-05T05:31:18.824Z,60.45
2022-08-05T05:36:22.314Z,61.61
2022-08-05T05:41:40.024Z,59.63
2022-08-05T05:46:44.416Z,63.33
2022-08-05T05:51:56.829Z,59.86
2022-08-05T05:57:01.629Z,61.40
2022-08-05T06:02:06.422Z,60.34
2022-08-05T06:07:11.082Z,60.51
2022-08-05T06:12:19.608Z,62.02
2022-08-05T06:17:52.463Z,59.29
2022-08-05T06:22:46.530Z,58.72
2022-08-05T06:28:12.674Z,58.76
2022-08-05T06:33:19.282Z,57.49
2022-08-05T06:38:36.626Z,57.59
2022-08-05T06:43:59.693Z,58.97
2022-08-05T06:49:07.566Z,58.59
2022-08-05T06:54:12.046Z,57.52
2022-08-05T06:59:23.967Z,59.98
2022-08-05T07:04:27.511Z,57.95
2022-08-05T07:09:32.443Z,58.43
2022-08-05T07:14:59.522Z,58.74
2022-08-05T07:20:32.544Z,58.88
2022-08-05T07:25:55.517Z,59.70
2022-08-05T07:30:55.113Z,59.76
2022-08-05T07:36:04.136Z,60.08
2022-08-05T07:42:07.807Z,60.32
2022-08-05T07:46:50.366Z,61.72
2022-08-05T07:51:55.188Z,60.87
2022-08-05T07:57:02.295Z,61.33
2022-08-05T08:02:31.463Z,59.72
2022-08-05T08:08:00.295Z,63.97
2022-08-05T08:13:04.111Z,60.74
2022-08-05T08:18:14.216Z,59.50
2022-08-05T08:24:01.278Z,58.88
2022-08-05T08:28:59.761Z,57.21
2022-08-05T08:34:07.789Z,58.69
2022-08-05T08:39:15.835Z,56.18
2022-08-05T08:45:16.860Z,58.42
2022-08-05T08:50:13.080Z,57.96
2022-08-05T08:55:13.505Z,58.01
2022-08-05T09:00:23.027Z,55.82
2022-08-05T09:05:38.901Z,55.90
2022-08-05T09:10:52.536Z,55.64
2022-08-05T09:15:56.365Z,59.39
2022-08-05T09:21:01.410Z,58.09
2022-08-05T09:26:10.343Z,56.40
2022-08-05T09:31:43.466Z,54.56
2022-08-05T09:36:55.377Z,54.79
2022-08-05T09:42:07.732Z,56.40
2022-08-05T09:47:15.457Z,52.63
2022-08-05T09:52:26.192Z,53.37
2022-08-05T09:57:59.986Z,53.71
2022-08-05T10:03:10.330Z,54.43
2022-08-05T10:08:36.345Z,55.39
2022-08-05T10:13:47.159Z,55.15
2022-08-05T10:18:51.789Z,52.40
2022-08-05T10:24:00.555Z,53.75
2022-08-05T10:29:04.642Z,55.55
2022-08-05T10:34:09.156Z,53.89
2022-08-05T10:39:25.061Z,52.68
2022-08-05T10:44:45.659Z,54.30
2022-08-05T10:50:32.863Z,55.81
2022-08-05T10:55:27.937Z,57.41
2022-08-05T11:00:31.408Z,57.49
2022-08-05T11:05:35.282Z,59.07
2022-08-05T11:10:50.458Z,57.35
2022-08-05T11:16:22.183Z,58.29
2022-08-05T11:21:48.812Z,61.06
2022-08-05T11:27:49.188Z,58.19
2022-08-05T11:33:34.613Z,58.63
2022-08-05T11:38:54.549Z,58.24
2022-08-05T11:44:05.874Z,59.16
2022-08-05T11:49:19.944Z,57.12
2022-08-05T11:54:33.383Z,58.16
2022-08-05T11:59:49.507Z,57.27
2022-08-05T12:04:59.175Z,57.92
2022-08-05T12:10:09.304Z,61.22
2022-08-05T12:15:20.386Z,57.45
2022-08-05T12:20:40.857Z,60.62
2022-08-05T12:25:53.421Z,59.59
2022-08-05T12:30:57.672Z,60.83
2022-08-05T12:36:08.996Z,58.18
2022-08-05T12:41:14.354Z,59.73
2022-08-05T12:46:29.060Z,60.04
2022-08-05T12:52:14.234Z,56.50
2022-08-05T12:57:10.462Z,56.27
2022-08-05T13:02:21.948Z,55.36
2022-08-05T13:08:00.094Z,57.19
2022-08-05T13:12:58.855Z,55.60
2022-08-05T13:18:02.316Z,55.34
2022-08-05T13:23:07.518Z,53.22
2022-08-05T13:28:11.400Z,53.62
2022-08-05T13:34:22.240Z,50.53
2022-08-05T13:38:43.181Z,54.60
2022-08-05T13:43:54.565Z,50.00
2022-08-05T13:49:00.939Z,51.27
2022-08-05T13:54:12.762Z,50.27
2022-08-05T13:59:20.131Z,51.12
2022-08-05T14:04:42.131Z,51.64
2022-08-05T14:10:01.581Z,48.33
2022-08-05T14:16:08.274Z,49.50
2022-08-05T14:20:30.630Z,48.30
2022-08-05T14:25:35.386Z,48.42
2022-08-05T14:30:51.903Z,47.33
2022-08-05T14:35:56.928Z,48.85
2022-08-05T14:41:06.935Z,49.18
2022-08-05T14:46:10.997Z,49.38
2022-08-05T14:51:15.463Z,48.27
2022-08-05T14:56:22.764Z,47.29
2022-08-05T15:01:48.915Z,44.26
2022-08-05T15:06:50.582Z,43.14
2022-08-05T15:11:56.955Z,43.40
2022-08-05T15:17:01.187Z,43.28
2022-08-05T15:22:04.974Z,43.85
2022-08-05T15:27:10.027Z,44.60
2022-08-05T15:32:13.642Z,42.25
2022-08-05T15:37:22.204Z,43.18
2022-08-05T15:42:57.633Z,42.21
2022-08-05T15:48:04.628Z,40.69
2022-08-05T15:53:09.223Z,40.50
2022-08-05T15:58:17.435Z,40.48
2022-08-05T16:03:21.091Z,41.02
2022-08-05T16:08:24.595Z,41.10
2022-08-05T16:13:35.716Z,41.67
2022-08-05T16:18:52.815Z,40.79
2022-08-05T16:24:00.178Z,41.87
2022-08-05T16:29:07.838Z,42.28
2022-08-05T16:34:11.802Z,42.20
2022-08-05T16:39:15.827Z,41.67
2022-08-05T16:44:21.166Z,40.32
2022-08-05T16:49:29.272Z,42.01
2022-08-05T16:54:33.133Z,40.38
2022-08-05T17:00:02.927Z,40.43
2022-08-05T17:05:01.676Z,40.75
2022-08-05T17:10:05.663Z,42.11
2022-08-05T17:15:15.377Z,42.67
2022-08-05T17:20:19.324Z,42.38
2022-08-05T17:25:39.294Z,42.37
2022-08-05T17:30:51.777Z,43.28
2022-08-05T17:36:08.139Z,43.29
2022-08-05T17:42:16.595Z,38.91
2022-08-05T17:46:38.580Z,37.29
2022-08-05T17:51:44.519Z,34.37
2022-08-05T17:56:51.249Z,34.63
2022-08-05T18:01:56.203Z,34.28
2022-08-05T18:07:01.319Z,33.09
2022-08-05T18:12:06.014Z,34.65
2022-08-05T18:17:59.600Z,33.35
2022-08-05T18:22:54.708Z,33.00
2022-08-05T18:28:01.709Z,34.26
2022-08-05T18:33:09.943Z,33.24
2022-08-05T18:38:19.425Z,35.01
2022-08-05T18:43:31.659Z,34.12
2022-08-05T18:48:42.988Z,34.08
2022-08-05T18:53:50.440Z,34.90
2022-08-05T18:58:54.927Z,34.67
2022-08-05T19:04:06.159Z,34.61
2022-08-05T19:09:15.987Z,35.93
2022-08-05T19:14:52.325Z,35.30
2022-08-05T19:19:47.041Z,36.01
2022-08-05T19:24:54.555Z,35.64
2022-08-05T19:30:02.818Z,36.26
2022-08-05T19:35:08.903Z,37.10
2022-08-05T19:40:12.784Z,36.47
2022-08-05T19:45:18.652Z,36.05
2022-08-05T19:50:23.489Z,39.44
2022-08-05T19:56:13.687Z,36.58
2022-08-05T20:00:52.483Z,36.83
2022-08-05T20:05:57.966Z,37.41
2022-08-05T20:11:01.469Z,36.20
2022-08-05T20:16:06.832Z,36.20
2022-08-05T20:21:11.735Z,36.77
2022-08-05T20:26:17.349Z,36.21
2022-08-05T20:31:28.296Z,37.65
2022-08-05T20:36:43.278Z,37.07
2022-08-05T20:41:48.192Z,37.03
2022-08-05T20:46:51.926Z,37.11
2022-08-05T20:51:57.997Z,38.56
2022-08-05T20:57:01.566Z,38.22
2022-08-05T21:02:06.992Z,38.05
2022-08-05T21:07:11.896Z,38.38
2022-08-05T21:12:19.300Z,39.79
2022-08-05T21:17:25.590Z,39.97
2022-08-05T21:22:33.185Z,40.84
2022-08-05T21:27:38.505Z,40.41
2022-08-05T21:32:42.599Z,40.56
2022-08-05T21:42:59.249Z,42.10
2022-08-05T21:48:06.548Z,42.56
2022-08-05T21:53:17.722Z,42.71
2022-08-05T21:58:24.873Z,43.24
2022-08-05T22:03:52.323Z,42.77
2022-08-05T22:08:58.204Z,41.84
2022-08-05T22:14:34.343Z,43.43
2022-08-05T22:19:57.391Z,43.80
2022-08-05T22:25:21.851Z,45.34
2022-08-05T22:30:34.938Z,45.59
2022-08-05T22:35:49.139Z,46.19
2022-08-05T22:40:54.889Z,45.77
2022-08-05T22:45:58.784Z,46.04
2022-08-05T22:51:06.822Z,47.06
2022-08-05T22:56:12.100Z,47.64
2022-08-05T23:01:17.000Z,47.51
2022-08-05T23:06:26.161Z,47.24
2022-08-05T23:11:31.285Z,48.07
2022-08-05T23:16:52.799Z,46.83
2022-08-05T23:21:57.258Z,46.54
2022-08-05T23:27:03.266Z,47.01
2022-08-05T23:32:07.337Z,46.44
2022-08-05T23:37:14.209Z,46.48
2022-08-05T23:42:23.516Z,46.67
2022-08-05T23:47:33.716Z,47.14
2022-08-05T23:52:50.671Z,47.12
2022-08-05T23:57:55.656Z,47.58
